This is the latest recevied weather packets stored in our database for station/object KJ4HF. If no packets are shown the sender has not sent any weather packets the latest 10 day(s).
| Time | Temp. | Humidity | Pressure | Rain* | Wind** | Luminosity | Snow |
|---|---|---|---|---|---|---|---|
| 1778272259 | 20° C | 34% | 1014.7 hPa | 0 mm | - | 424 W/m² | - |
| 1778271359 | 20.56° C | 34% | 1014.7 hPa | 0 mm | - | 482 W/m² | - |
| 1778271044 | 21.11° C | 37% | 1014.9 hPa | 0 mm | - | 707 W/m² | - |
| 1778270744 | 20.56° C | 33% | 1015.2 hPa | 0 mm | - | 830 W/m² | - |
| 1778269850 | 21.11° C | 32% | 1015.3 hPa | 0 mm | - | 854 W/m² | - |
| 1778269245 | 20.56° C | 34% | 1015.6 hPa | 0 mm | - | 889 W/m² | - |
| 1778268045 | 20.56° C | 34% | 1015.7 hPa | 0 mm | - | 724 W/m² | - |
| 1778267750 | 20.56° C | 37% | 1015.8 hPa | 0 mm | - | 865 W/m² | - |
| 1778267441 | 20.56° C | 33% | 1015.8 hPa | 0 mm | - | 891 W/m² | - |
| 1778266548 | 20.56° C | 35% | 1016.3 hPa | 0 mm | - | 947 W/m² | - |
| 1778265953 | 20.56° C | 35% | 1016.2 hPa | 0 mm | - | 974 W/m² | - |
| 1778265645 | 20.56° C | 36% | 1016.2 hPa | 0 mm | - | 972 W/m² | - |
| 1778265346 | 20° C | 33% | 1016.3 hPa | 0 mm | - | 970 W/m² | - |
| 1778263256 | 19.44° C | 38% | 1016.7 hPa | 0 mm | - | 1011 W/m² | - |
| 1778262045 | 19.44° C | 36% | 1017 hPa | 0 mm | - | 1021 W/m² | - |
| 1778261454 | 19.44° C | 34% | 1017.1 hPa | 0 mm | - | 1030 W/m² | - |
| 1778259655 | 18.89° C | 37% | 1017.5 hPa | 0 mm | - | 1016 W/m² | - |
| 1778256051 | 18.33° C | 36% | 1018.2 hPa | 0 mm | - | 972 W/m² | - |
| 1778255745 | 18.33° C | 41% | 1018.3 hPa | 0 mm | - | 962 W/m² | - |
| 1778253643 | 17.22° C | 41% | 1018.5 hPa | 0 mm | - | 909 W/m² | - |
| 1778250343 | 15.56° C | 60% | 1018.6 hPa | 0 mm | - | 772 W/m² | - |
| 1778250044 | 15.56° C | 67% | 1018.6 hPa | 0 mm | - | 761 W/m² | - |
| 1778247972 | 14.44° C | 70% | 1018.7 hPa | 0 mm | - | 654 W/m² | - |
| 1778247643 | 13.89° C | 66% | 1018.6 hPa | 0 mm | - | 638 W/m² | - |
| 1778242242 | 9.44° C | 98% | 1017.9 hPa | 0 mm | - | 299 W/m² | - |
* Rain latest hour (hover to see other rain measurements)
** Current wind speed in m/s (hover to see current wind gust speed)